sensor_id;sensor_type;location;lat;lon;timestamp;temperature;humidity
12872;DHT22;6504;53.766;9.626;2023-12-20T00:01:25;6.00;99.90
12872;DHT22;6504;53.766;9.626;2023-12-20T00:03:53;6.00;99.90
12872;DHT22;6504;53.766;9.626;2023-12-20T00:06:21;5.90;99.90
12872;DHT22;6504;53.766;9.626;2023-12-20T00:08:49;5.90;99.90
12872;DHT22;6504;53.766;9.626;2023-12-20T00:11:17;5.80;99.90
12872;DHT22;6504;53.766;9.626;2023-12-20T00:13:45;5.80;99.90
12872;DHT22;6504;53.766;9.626;2023-12-20T00:16:17;5.70;99.90
12872;DHT22;6504;53.766;9.626;2023-12-20T00:18:47;5.70;99.90
12872;DHT22;6504;53.766;9.626;2023-12-20T00:21:15;5.70;99.90
12872;DHT22;6504;53.766;9.626;2023-12-20T00:23:43;5.70;99.90
12872;DHT22;6504;53.766;9.626;2023-12-20T00:26:11;5.70;99.90
12872;DHT22;6504;53.766;9.626;2023-12-20T00:28:39;5.70;99.90
12872;DHT22;6504;53.766;9.626;2023-12-20T00:31:08;5.70;99.90
12872;DHT22;6504;53.766;9.626;2023-12-20T00:33:37;5.60;99.90
12872;DHT22;6504;53.766;9.626;2023-12-20T00:36:08;5.60;99.90
12872;DHT22;6504;53.766;9.626;2023-12-20T00:38:36;5.60;99.90
12872;DHT22;6504;53.766;9.626;2023-12-20T00:41:05;5.60;99.90
12872;DHT22;6504;53.766;9.626;2023-12-20T00:43:34;5.50;99.90
12872;DHT22;6504;53.766;9.626;2023-12-20T00:46:02;5.50;99.90
12872;DHT22;6504;53.766;9.626;2023-12-20T00:48:30;5.50;99.90
12872;DHT22;6504;53.766;9.626;2023-12-20T00:50:58;5.50;99.90
12872;DHT22;6504;53.766;9.626;2023-12-20T00:53:27;5.50;99.90
12872;DHT22;6504;53.766;9.626;2023-12-20T00:55:55;5.40;99.90
12872;DHT22;6504;53.766;9.626;2023-12-20T00:58:25;5.30;99.90
12872;DHT22;6504;53.766;9.626;2023-12-20T01:00:54;5.30;99.90
12872;DHT22;6504;53.766;9.626;2023-12-20T01:03:23;5.30;99.90
12872;DHT22;6504;53.766;9.626;2023-12-20T01:05:51;5.30;99.90
12872;DHT22;6504;53.766;9.626;2023-12-20T01:08:19;5.20;99.90
12872;DHT22;6504;53.766;9.626;2023-12-20T01:10:48;5.20;99.90
12872;DHT22;6504;53.766;9.626;2023-12-20T01:13:16;5.20;99.90
12872;DHT22;6504;53.766;9.626;2023-12-20T01:15:44;5.20;99.90
12872;DHT22;6504;53.766;9.626;2023-12-20T01:18:14;5.20;99.90
12872;DHT22;6504;53.766;9.626;2023-12-20T01:20:42;5.20;99.90
12872;DHT22;6504;53.766;9.626;2023-12-20T01:23:10;5.20;99.90
12872;DHT22;6504;53.766;9.626;2023-12-20T01:25:39;5.20;99.90
12872;DHT22;6504;53.766;9.626;2023-12-20T01:28:08;5.10;99.90
12872;DHT22;6504;53.766;9.626;2023-12-20T01:30:37;5.10;99.90
12872;DHT22;6504;53.766;9.626;2023-12-20T01:33:05;5.10;99.90
12872;DHT22;6504;53.766;9.626;2023-12-20T01:35:33;5.10;99.90
12872;DHT22;6504;53.766;9.626;2023-12-20T01:38:02;5.10;99.90
12872;DHT22;6504;53.766;9.626;2023-12-20T01:40:30;5.10;99.90
12872;DHT22;6504;53.766;9.626;2023-12-20T01:42:58;5.00;99.90
12872;DHT22;6504;53.766;9.626;2023-12-20T01:45:28;5.00;99.90
12872;DHT22;6504;53.766;9.626;2023-12-20T01:47:57;5.00;99.90
12872;DHT22;6504;53.766;9.626;2023-12-20T01:50:27;5.00;99.90
12872;DHT22;6504;53.766;9.626;2023-12-20T01:52:56;5.00;99.90
12872;DHT22;6504;53.766;9.626;2023-12-20T01:55:25;5.00;99.90
12872;DHT22;6504;53.766;9.626;2023-12-20T01:57:55;5.00;99.90
12872;DHT22;6504;53.766;9.626;2023-12-20T02:00:25;5.00;99.90
12872;DHT22;6504;53.766;9.626;2023-12-20T02:02:55;5.00;99.90
12872;DHT22;6504;53.766;9.626;2023-12-20T02:05:25;5.00;99.90
12872;DHT22;6504;53.766;9.626;2023-12-20T02:07:54;5.00;99.90
12872;DHT22;6504;53.766;9.626;2023-12-20T02:10:23;5.10;99.90
12872;DHT22;6504;53.766;9.626;2023-12-20T02:12:52;5.10;99.90
12872;DHT22;6504;53.766;9.626;2023-12-20T02:15:20;5.10;99.90
12872;DHT22;6504;53.766;9.626;2023-12-20T02:17:49;5.20;99.90
12872;DHT22;6504;53.766;9.626;2023-12-20T02:20:19;5.20;99.90
12872;DHT22;6504;53.766;9.626;2023-12-20T02:22:48;5.20;99.90
12872;DHT22;6504;53.766;9.626;2023-12-20T02:25:16;5.20;99.90
12872;DHT22;6504;53.766;9.626;2023-12-20T02:27:44;5.20;99.90
12872;DHT22;6504;53.766;9.626;2023-12-20T02:30:14;5.20;99.90
12872;DHT22;6504;53.766;9.626;2023-12-20T02:32:42;5.30;99.90
12872;DHT22;6504;53.766;9.626;2023-12-20T02:35:10;5.20;99.90
12872;DHT22;6504;53.766;9.626;2023-12-20T02:37:39;5.30;99.90
12872;DHT22;6504;53.766;9.626;2023-12-20T02:40:09;5.30;99.90
12872;DHT22;6504;53.766;9.626;2023-12-20T02:42:37;5.30;99.90
12872;DHT22;6504;53.766;9.626;2023-12-20T02:45:06;5.30;99.90
12872;DHT22;6504;53.766;9.626;2023-12-20T02:47:34;5.30;99.90
12872;DHT22;6504;53.766;9.626;2023-12-20T02:50:03;5.30;99.90
12872;DHT22;6504;53.766;9.626;2023-12-20T02:52:31;5.30;99.90
12872;DHT22;6504;53.766;9.626;2023-12-20T02:54:59;5.30;99.90
12872;DHT22;6504;53.766;9.626;2023-12-20T02:57:29;5.30;99.90
12872;DHT22;6504;53.766;9.626;2023-12-20T02:59:57;5.30;99.90
12872;DHT22;6504;53.766;9.626;2023-12-20T03:02:25;5.30;99.90
12872;DHT22;6504;53.766;9.626;2023-12-20T03:04:53;5.30;99.90
12872;DHT22;6504;53.766;9.626;2023-12-20T03:07:21;5.30;99.90
12872;DHT22;6504;53.766;9.626;2023-12-20T03:09:49;5.30;99.90
12872;DHT22;6504;53.766;9.626;2023-12-20T03:12:39;5.30;99.90
12872;DHT22;6504;53.766;9.626;2023-12-20T03:15:08;5.30;99.90
12872;DHT22;6504;53.766;9.626;2023-12-20T03:17:36;5.30;99.90
12872;DHT22;6504;53.766;9.626;2023-12-20T03:20:05;5.30;99.90
12872;DHT22;6504;53.766;9.626;2023-12-20T03:22:34;5.30;99.90
12872;DHT22;6504;53.766;9.626;2023-12-20T03:25:02;5.30;99.90
12872;DHT22;6504;53.766;9.626;2023-12-20T03:27:30;5.30;99.90
12872;DHT22;6504;53.766;9.626;2023-12-20T03:30:00;5.30;99.90
12872;DHT22;6504;53.766;9.626;2023-12-20T03:32:28;5.30;99.90
12872;DHT22;6504;53.766;9.626;2023-12-20T03:34:56;5.30;99.90
12872;DHT22;6504;53.766;9.626;2023-12-20T03:37:24;5.30;99.90
12872;DHT22;6504;53.766;9.626;2023-12-20T03:39:52;5.30;99.90
12872;DHT22;6504;53.766;9.626;2023-12-20T03:42:20;5.30;99.90
12872;DHT22;6504;53.766;9.626;2023-12-20T03:44:49;5.30;99.90
12872;DHT22;6504;53.766;9.626;2023-12-20T03:47:18;5.30;99.90
12872;DHT22;6504;53.766;9.626;2023-12-20T03:49:46;5.30;99.90
12872;DHT22;6504;53.766;9.626;2023-12-20T03:52:15;5.30;99.90
12872;DHT22;6504;53.766;9.626;2023-12-20T03:54:44;5.30;99.90
12872;DHT22;6504;53.766;9.626;2023-12-20T03:57:12;5.30;99.90
12872;DHT22;6504;53.766;9.626;2023-12-20T03:59:40;5.30;99.90
12872;DHT22;6504;53.766;9.626;2023-12-20T04:02:08;5.30;99.90
12872;DHT22;6504;53.766;9.626;2023-12-20T04:04:37;5.30;99.90
12872;DHT22;6504;53.766;9.626;2023-12-20T04:07:06;5.30;99.90
12872;DHT22;6504;53.766;9.626;2023-12-20T04:09:34;5.30;99.90
12872;DHT22;6504;53.766;9.626;2023-12-20T04:12:02;5.30;99.90
12872;DHT22;6504;53.766;9.626;2023-12-20T04:14:31;5.30;99.90
12872;DHT22;6504;53.766;9.626;2023-12-20T04:17:00;5.30;99.90
12872;DHT22;6504;53.766;9.626;2023-12-20T04:19:28;5.30;99.90
12872;DHT22;6504;53.766;9.626;2023-12-20T04:21:57;5.30;99.90
12872;DHT22;6504;53.766;9.626;2023-12-20T04:24:25;5.30;99.90
12872;DHT22;6504;53.766;9.626;2023-12-20T04:26:53;5.40;99.90
12872;DHT22;6504;53.766;9.626;2023-12-20T04:29:21;5.30;99.90
12872;DHT22;6504;53.766;9.626;2023-12-20T04:31:50;5.30;99.90
12872;DHT22;6504;53.766;9.626;2023-12-20T04:34:19;5.30;99.90
12872;DHT22;6504;53.766;9.626;2023-12-20T04:36:47;5.30;99.90
12872;DHT22;6504;53.766;9.626;2023-12-20T04:39:16;5.40;99.90
12872;DHT22;6504;53.766;9.626;2023-12-20T04:41:45;5.30;99.90
12872;DHT22;6504;53.766;9.626;2023-12-20T04:44:14;5.40;99.90
12872;DHT22;6504;53.766;9.626;2023-12-20T04:46:42;5.40;99.90
12872;DHT22;6504;53.766;9.626;2023-12-20T04:49:11;5.40;99.90
12872;DHT22;6504;53.766;9.626;2023-12-20T04:51:39;5.40;99.90
12872;DHT22;6504;53.766;9.626;2023-12-20T04:54:07;5.40;99.90
12872;DHT22;6504;53.766;9.626;2023-12-20T04:56:37;5.40;99.90
12872;DHT22;6504;53.766;9.626;2023-12-20T04:59:05;5.40;99.90
12872;DHT22;6504;53.766;9.626;2023-12-20T05:01:33;5.40;99.90
12872;DHT22;6504;53.766;9.626;2023-12-20T05:04:02;5.40;99.90
12872;DHT22;6504;53.766;9.626;2023-12-20T05:06:30;5.40;99.90
12872;DHT22;6504;53.766;9.626;2023-12-20T05:08:58;5.40;99.90
12872;DHT22;6504;53.766;9.626;2023-12-20T05:11:26;5.40;99.90
12872;DHT22;6504;53.766;9.626;2023-12-20T05:13:56;5.40;99.90
12872;DHT22;6504;53.766;9.626;2023-12-20T05:16:25;5.40;99.90
12872;DHT22;6504;53.766;9.626;2023-12-20T05:18:53;5.40;99.90
12872;DHT22;6504;53.766;9.626;2023-12-20T05:21:22;5.40;99.90
12872;DHT22;6504;53.766;9.626;2023-12-20T05:23:50;5.40;99.90
12872;DHT22;6504;53.766;9.626;2023-12-20T05:26:18;5.40;99.90
12872;DHT22;6504;53.766;9.626;2023-12-20T05:28:46;5.40;99.90
12872;DHT22;6504;53.766;9.626;2023-12-20T05:31:16;5.50;99.90
12872;DHT22;6504;53.766;9.626;2023-12-20T05:33:44;5.50;99.90
12872;DHT22;6504;53.766;9.626;2023-12-20T05:36:12;5.50;99.90
12872;DHT22;6504;53.766;9.626;2023-12-20T05:38:42;5.50;99.90
12872;DHT22;6504;53.766;9.626;2023-12-20T05:41:10;5.50;99.90
12872;DHT22;6504;53.766;9.626;2023-12-20T05:43:38;5.50;99.90
12872;DHT22;6504;53.766;9.626;2023-12-20T05:46:06;5.50;99.90
12872;DHT22;6504;53.766;9.626;2023-12-20T05:48:36;5.50;99.90
12872;DHT22;6504;53.766;9.626;2023-12-20T05:51:04;5.50;99.90
12872;DHT22;6504;53.766;9.626;2023-12-20T05:53:32;5.50;99.90
12872;DHT22;6504;53.766;9.626;2023-12-20T05:56:00;5.50;99.90
12872;DHT22;6504;53.766;9.626;2023-12-20T05:58:28;5.50;99.90
12872;DHT22;6504;53.766;9.626;2023-12-20T06:00:57;5.50;99.90
12872;DHT22;6504;53.766;9.626;2023-12-20T06:03:25;5.50;99.90
12872;DHT22;6504;53.766;9.626;2023-12-20T06:05:54;5.50;99.90
12872;DHT22;6504;53.766;9.626;2023-12-20T06:08:39;5.50;99.90
12872;DHT22;6504;53.766;9.626;2023-12-20T06:11:07;5.50;99.90
12872;DHT22;6504;53.766;9.626;2023-12-20T06:13:35;5.50;99.90
12872;DHT22;6504;53.766;9.626;2023-12-20T06:16:05;5.50;99.90
12872;DHT22;6504;53.766;9.626;2023-12-20T06:18:34;5.50;99.90
12872;DHT22;6504;53.766;9.626;2023-12-20T06:21:05;5.50;99.90
12872;DHT22;6504;53.766;9.626;2023-12-20T06:23:34;5.50;99.90
12872;DHT22;6504;53.766;9.626;2023-12-20T06:26:02;5.50;99.90
12872;DHT22;6504;53.766;9.626;2023-12-20T06:28:30;5.50;99.90
12872;DHT22;6504;53.766;9.626;2023-12-20T06:30:58;5.50;99.90
12872;DHT22;6504;53.766;9.626;2023-12-20T06:33:27;5.50;99.90
12872;DHT22;6504;53.766;9.626;2023-12-20T06:35:56;5.50;99.90
12872;DHT22;6504;53.766;9.626;2023-12-20T06:38:25;5.60;99.90
12872;DHT22;6504;53.766;9.626;2023-12-20T06:40:54;5.50;99.90
12872;DHT22;6504;53.766;9.626;2023-12-20T06:43:24;5.60;99.90
12872;DHT22;6504;53.766;9.626;2023-12-20T06:45:57;5.60;99.90
12872;DHT22;6504;53.766;9.626;2023-12-20T06:48:25;5.60;99.90
12872;DHT22;6504;53.766;9.626;2023-12-20T06:50:53;5.50;99.90
12872;DHT22;6504;53.766;9.626;2023-12-20T06:53:21;5.50;99.90
12872;DHT22;6504;53.766;9.626;2023-12-20T06:55:50;5.50;99.90
12872;DHT22;6504;53.766;9.626;2023-12-20T06:58:18;5.50;99.90
12872;DHT22;6504;53.766;9.626;2023-12-20T07:00:48;5.50;99.90
12872;DHT22;6504;53.766;9.626;2023-12-20T07:03:16;5.50;99.90
12872;DHT22;6504;53.766;9.626;2023-12-20T07:05:44;5.50;99.90
12872;DHT22;6504;53.766;9.626;2023-12-20T07:08:12;5.50;99.90
12872;DHT22;6504;53.766;9.626;2023-12-20T07:10:42;5.60;99.90
12872;DHT22;6504;53.766;9.626;2023-12-20T07:13:12;5.50;99.90
12872;DHT22;6504;53.766;9.626;2023-12-20T07:15:41;5.50;99.90
12872;DHT22;6504;53.766;9.626;2023-12-20T07:18:09;5.50;99.90
12872;DHT22;6504;53.766;9.626;2023-12-20T07:20:38;5.60;99.90
12872;DHT22;6504;53.766;9.626;2023-12-20T07:23:06;5.60;99.90
12872;DHT22;6504;53.766;9.626;2023-12-20T07:25:34;5.60;99.90
12872;DHT22;6504;53.766;9.626;2023-12-20T07:28:02;5.60;99.90
12872;DHT22;6504;53.766;9.626;2023-12-20T07:30:32;5.60;99.90
12872;DHT22;6504;53.766;9.626;2023-12-20T07:33:00;5.60;99.90
12872;DHT22;6504;53.766;9.626;2023-12-20T07:35:29;5.60;99.90
12872;DHT22;6504;53.766;9.626;2023-12-20T07:37:57;5.60;99.90
12872;DHT22;6504;53.766;9.626;2023-12-20T07:40:26;5.60;99.90
12872;DHT22;6504;53.766;9.626;2023-12-20T07:42:54;5.60;99.90
12872;DHT22;6504;53.766;9.626;2023-12-20T07:45:22;5.60;99.90
12872;DHT22;6504;53.766;9.626;2023-12-20T07:47:52;5.60;99.90
12872;DHT22;6504;53.766;9.626;2023-12-20T07:50:20;5.60;99.90
12872;DHT22;6504;53.766;9.626;2023-12-20T07:52:48;5.60;99.90
12872;DHT22;6504;53.766;9.626;2023-12-20T07:55:16;5.70;99.90
12872;DHT22;6504;53.766;9.626;2023-12-20T07:57:45;5.70;99.90
12872;DHT22;6504;53.766;9.626;2023-12-20T08:00:14;5.70;99.90
12872;DHT22;6504;53.766;9.626;2023-12-20T08:02:42;5.70;99.90
12872;DHT22;6504;53.766;9.626;2023-12-20T08:05:11;5.70;99.90
12872;DHT22;6504;53.766;9.626;2023-12-20T08:07:42;5.70;99.90
12872;DHT22;6504;53.766;9.626;2023-12-20T08:10:10;5.70;99.90
12872;DHT22;6504;53.766;9.626;2023-12-20T08:12:39;5.70;99.90
12872;DHT22;6504;53.766;9.626;2023-12-20T08:15:08;5.70;99.90
12872;DHT22;6504;53.766;9.626;2023-12-20T08:17:36;5.70;99.90
12872;DHT22;6504;53.766;9.626;2023-12-20T08:20:05;5.70;99.90
12872;DHT22;6504;53.766;9.626;2023-12-20T08:22:35;5.80;99.90
12872;DHT22;6504;53.766;9.626;2023-12-20T08:25:04;5.70;99.90
12872;DHT22;6504;53.766;9.626;2023-12-20T08:27:32;5.80;99.90
12872;DHT22;6504;53.766;9.626;2023-12-20T08:30:00;5.80;99.90
12872;DHT22;6504;53.766;9.626;2023-12-20T08:32:29;5.80;99.90
12872;DHT22;6504;53.766;9.626;2023-12-20T08:34:57;5.80;99.90
12872;DHT22;6504;53.766;9.626;2023-12-20T08:37:25;5.90;99.90
12872;DHT22;6504;53.766;9.626;2023-12-20T08:39:54;5.90;99.90
12872;DHT22;6504;53.766;9.626;2023-12-20T08:42:22;5.90;99.90
12872;DHT22;6504;53.766;9.626;2023-12-20T08:44:51;5.90;99.90
12872;DHT22;6504;53.766;9.626;2023-12-20T08:47:19;5.90;99.90
12872;DHT22;6504;53.766;9.626;2023-12-20T08:49:47;5.90;99.90
12872;DHT22;6504;53.766;9.626;2023-12-20T08:52:15;5.90;99.90
12872;DHT22;6504;53.766;9.626;2023-12-20T08:54:44;5.90;99.90
12872;DHT22;6504;53.766;9.626;2023-12-20T08:57:13;5.60;99.90
12872;DHT22;6504;53.766;9.626;2023-12-20T08:59:42;5.50;99.90
12872;DHT22;6504;53.766;9.626;2023-12-20T09:02:10;5.30;99.90
12872;DHT22;6504;53.766;9.626;2023-12-20T09:04:38;5.20;99.90
12872;DHT22;6504;53.766;9.626;2023-12-20T09:07:06;5.20;99.90
12872;DHT22;6504;53.766;9.626;2023-12-20T09:09:35;5.10;99.90
12872;DHT22;6504;53.766;9.626;2023-12-20T09:12:03;5.10;99.90
12872;DHT22;6504;53.766;9.626;2023-12-20T09:14:33;5.10;99.90
12872;DHT22;6504;53.766;9.626;2023-12-20T09:17:01;5.00;99.90
12872;DHT22;6504;53.766;9.626;2023-12-20T09:19:30;5.10;99.90
12872;DHT22;6504;53.766;9.626;2023-12-20T09:21:58;5.10;99.90
12872;DHT22;6504;53.766;9.626;2023-12-20T09:24:27;5.10;99.90
12872;DHT22;6504;53.766;9.626;2023-12-20T09:26:55;5.10;99.90
12872;DHT22;6504;53.766;9.626;2023-12-20T09:29:23;5.00;99.90
12872;DHT22;6504;53.766;9.626;2023-12-20T09:31:52;5.00;99.90
12872;DHT22;6504;53.766;9.626;2023-12-20T09:34:21;5.00;99.90
12872;DHT22;6504;53.766;9.626;2023-12-20T09:36:49;5.00;99.90
12872;DHT22;6504;53.766;9.626;2023-12-20T09:39:18;5.00;99.90
12872;DHT22;6504;53.766;9.626;2023-12-20T09:41:56;5.00;99.90
12872;DHT22;6504;53.766;9.626;2023-12-20T09:44:28;5.00;99.90
12872;DHT22;6504;53.766;9.626;2023-12-20T09:46:57;5.00;99.90
12872;DHT22;6504;53.766;9.626;2023-12-20T09:49:27;5.00;99.90
12872;DHT22;6504;53.766;9.626;2023-12-20T09:51:56;5.00;99.90
12872;DHT22;6504;53.766;9.626;2023-12-20T09:54:28;5.10;99.90
12872;DHT22;6504;53.766;9.626;2023-12-20T09:56:59;5.10;99.90
12872;DHT22;6504;53.766;9.626;2023-12-20T09:59:27;5.10;99.90
12872;DHT22;6504;53.766;9.626;2023-12-20T10:01:58;5.10;99.90
12872;DHT22;6504;53.766;9.626;2023-12-20T10:04:32;5.10;99.90
12872;DHT22;6504;53.766;9.626;2023-12-20T10:07:02;5.10;99.90
12872;DHT22;6504;53.766;9.626;2023-12-20T10:09:34;5.10;99.90
12872;DHT22;6504;53.766;9.626;2023-12-20T10:12:02;5.10;99.90
12872;DHT22;6504;53.766;9.626;2023-12-20T10:14:32;5.10;99.90
12872;DHT22;6504;53.766;9.626;2023-12-20T10:17:04;5.10;99.90
12872;DHT22;6504;53.766;9.626;2023-12-20T10:19:33;5.10;99.90
12872;DHT22;6504;53.766;9.626;2023-12-20T10:22:03;5.10;99.90
12872;DHT22;6504;53.766;9.626;2023-12-20T10:24:33;5.10;99.90
12872;DHT22;6504;53.766;9.626;2023-12-20T10:27:02;5.10;99.90
12872;DHT22;6504;53.766;9.626;2023-12-20T10:29:33;5.10;99.90
12872;DHT22;6504;53.766;9.626;2023-12-20T10:32:25;5.10;99.90
12872;DHT22;6504;53.766;9.626;2023-12-20T10:34:54;5.10;99.90
12872;DHT22;6504;53.766;9.626;2023-12-20T10:37:23;5.10;99.90
12872;DHT22;6504;53.766;9.626;2023-12-20T10:39:53;5.10;99.90
12872;DHT22;6504;53.766;9.626;2023-12-20T10:42:26;5.20;99.90
12872;DHT22;6504;53.766;9.626;2023-12-20T10:44:55;5.20;99.90
12872;DHT22;6504;53.766;9.626;2023-12-20T10:47:25;5.20;99.90
12872;DHT22;6504;53.766;9.626;2023-12-20T10:49:53;5.20;99.90
12872;DHT22;6504;53.766;9.626;2023-12-20T10:52:23;5.20;99.90
12872;DHT22;6504;53.766;9.626;2023-12-20T10:54:52;5.20;99.90
12872;DHT22;6504;53.766;9.626;2023-12-20T10:57:21;5.30;99.90
12872;DHT22;6504;53.766;9.626;2023-12-20T10:59:52;5.30;99.90
12872;DHT22;6504;53.766;9.626;2023-12-20T11:02:23;5.30;99.90
12872;DHT22;6504;53.766;9.626;2023-12-20T11:04:56;5.30;99.90
12872;DHT22;6504;53.766;9.626;2023-12-20T11:07:33;5.30;99.90
12872;DHT22;6504;53.766;9.626;2023-12-20T11:10:10;5.20;99.90
12872;DHT22;6504;53.766;9.626;2023-12-20T11:12:46;5.20;99.90
12872;DHT22;6504;53.766;9.626;2023-12-20T11:15:15;5.20;99.90
12872;DHT22;6504;53.766;9.626;2023-12-20T11:17:46;5.20;99.90
12872;DHT22;6504;53.766;9.626;2023-12-20T11:20:18;5.20;99.90
12872;DHT22;6504;53.766;9.626;2023-12-20T11:22:53;5.20;99.90
12872;DHT22;6504;53.766;9.626;2023-12-20T11:25:21;5.20;99.90
12872;DHT22;6504;53.766;9.626;2023-12-20T11:28:07;5.30;99.90
12872;DHT22;6504;53.766;9.626;2023-12-20T11:30:46;5.30;99.90
12872;DHT22;6504;53.766;9.626;2023-12-20T11:33:16;5.30;99.90
12872;DHT22;6504;53.766;9.626;2023-12-20T11:35:45;5.40;99.90
12872;DHT22;6504;53.766;9.626;2023-12-20T11:38:14;5.30;99.90
12872;DHT22;6504;53.766;9.626;2023-12-20T11:40:42;5.30;99.90
12872;DHT22;6504;53.766;9.626;2023-12-20T11:43:11;5.40;99.90
12872;DHT22;6504;53.766;9.626;2023-12-20T11:45:49;5.40;99.90
12872;DHT22;6504;53.766;9.626;2023-12-20T11:48:19;5.40;99.90
12872;DHT22;6504;53.766;9.626;2023-12-20T11:50:48;5.40;99.90
12872;DHT22;6504;53.766;9.626;2023-12-20T11:53:17;5.40;99.90
12872;DHT22;6504;53.766;9.626;2023-12-20T11:55:48;5.50;99.90
12872;DHT22;6504;53.766;9.626;2023-12-20T11:58:16;5.50;99.90
12872;DHT22;6504;53.766;9.626;2023-12-20T12:00:44;5.50;99.90
12872;DHT22;6504;53.766;9.626;2023-12-20T12:03:15;5.60;99.90
12872;DHT22;6504;53.766;9.626;2023-12-20T12:05:47;5.60;99.90
12872;DHT22;6504;53.766;9.626;2023-12-20T12:08:15;5.70;99.90
12872;DHT22;6504;53.766;9.626;2023-12-20T12:10:44;5.70;99.90
12872;DHT22;6504;53.766;9.626;2023-12-20T12:13:12;5.80;99.90
12872;DHT22;6504;53.766;9.626;2023-12-20T12:15:42;5.80;99.90
12872;DHT22;6504;53.766;9.626;2023-12-20T12:18:14;5.80;99.90
12872;DHT22;6504;53.766;9.626;2023-12-20T12:20:44;5.80;99.90
12872;DHT22;6504;53.766;9.626;2023-12-20T12:23:12;5.80;99.90
12872;DHT22;6504;53.766;9.626;2023-12-20T12:25:40;5.90;99.90
12872;DHT22;6504;53.766;9.626;2023-12-20T12:28:11;5.90;99.90
12872;DHT22;6504;53.766;9.626;2023-12-20T12:30:39;5.90;99.90
12872;DHT22;6504;53.766;9.626;2023-12-20T12:33:19;5.90;99.90
12872;DHT22;6504;53.766;9.626;2023-12-20T12:35:49;5.90;99.90
12872;DHT22;6504;53.766;9.626;2023-12-20T12:38:20;5.90;99.90
12872;DHT22;6504;53.766;9.626;2023-12-20T12:40:49;5.90;99.90
12872;DHT22;6504;53.766;9.626;2023-12-20T12:43:17;5.90;99.90
12872;DHT22;6504;53.766;9.626;2023-12-20T12:45:45;5.90;99.90
12872;DHT22;6504;53.766;9.626;2023-12-20T12:48:14;5.90;99.90
12872;DHT22;6504;53.766;9.626;2023-12-20T12:50:42;5.90;99.90
12872;DHT22;6504;53.766;9.626;2023-12-20T12:53:12;6.00;99.90
12872;DHT22;6504;53.766;9.626;2023-12-20T12:55:40;5.90;99.90
12872;DHT22;6504;53.766;9.626;2023-12-20T12:58:08;6.00;99.90
12872;DHT22;6504;53.766;9.626;2023-12-20T13:00:36;6.00;99.90
12872;DHT22;6504;53.766;9.626;2023-12-20T13:03:04;6.00;99.90
12872;DHT22;6504;53.766;9.626;2023-12-20T13:05:34;6.00;99.90
12872;DHT22;6504;53.766;9.626;2023-12-20T13:08:07;6.00;99.90
12872;DHT22;6504;53.766;9.626;2023-12-20T13:10:37;6.10;99.90
12872;DHT22;6504;53.766;9.626;2023-12-20T13:13:06;6.10;99.90
12872;DHT22;6504;53.766;9.626;2023-12-20T13:15:37;6.10;99.90
12872;DHT22;6504;53.766;9.626;2023-12-20T13:18:06;6.20;99.90
12872;DHT22;6504;53.766;9.626;2023-12-20T13:20:34;6.20;99.90
12872;DHT22;6504;53.766;9.626;2023-12-20T13:23:02;6.20;99.90
12872;DHT22;6504;53.766;9.626;2023-12-20T13:25:31;6.20;99.90
12872;DHT22;6504;53.766;9.626;2023-12-20T13:28:01;6.20;99.90
12872;DHT22;6504;53.766;9.626;2023-12-20T13:30:31;6.10;99.90
12872;DHT22;6504;53.766;9.626;2023-12-20T13:32:59;6.10;99.90
12872;DHT22;6504;53.766;9.626;2023-12-20T13:35:27;6.10;99.90
12872;DHT22;6504;53.766;9.626;2023-12-20T13:37:55;6.10;99.90
12872;DHT22;6504;53.766;9.626;2023-12-20T13:40:24;6.10;99.90
12872;DHT22;6504;53.766;9.626;2023-12-20T13:42:52;6.10;99.90
12872;DHT22;6504;53.766;9.626;2023-12-20T13:45:23;6.00;99.90
12872;DHT22;6504;53.766;9.626;2023-12-20T13:47:52;6.00;99.90
12872;DHT22;6504;53.766;9.626;2023-12-20T13:50:20;6.00;99.90
12872;DHT22;6504;53.766;9.626;2023-12-20T13:52:48;5.90;99.90
12872;DHT22;6504;53.766;9.626;2023-12-20T13:55:16;5.90;99.90
12872;DHT22;6504;53.766;9.626;2023-12-20T13:57:47;5.90;99.90
12872;DHT22;6504;53.766;9.626;2023-12-20T14:00:23;5.80;99.90
12872;DHT22;6504;53.766;9.626;2023-12-20T14:02:51;5.80;99.90
12872;DHT22;6504;53.766;9.626;2023-12-20T14:05:20;5.80;99.90
12872;DHT22;6504;53.766;9.626;2023-12-20T14:07:54;5.80;99.90
12872;DHT22;6504;53.766;9.626;2023-12-20T14:10:24;5.80;99.90
12872;DHT22;6504;53.766;9.626;2023-12-20T14:12:54;5.70;99.90
12872;DHT22;6504;53.766;9.626;2023-12-20T14:15:24;5.70;99.90
12872;DHT22;6504;53.766;9.626;2023-12-20T14:17:53;5.80;99.90
12872;DHT22;6504;53.766;9.626;2023-12-20T14:20:21;5.70;99.90
12872;DHT22;6504;53.766;9.626;2023-12-20T14:22:50;5.70;99.90
12872;DHT22;6504;53.766;9.626;2023-12-20T14:25:18;5.70;99.90
12872;DHT22;6504;53.766;9.626;2023-12-20T14:27:46;5.70;99.90
12872;DHT22;6504;53.766;9.626;2023-12-20T14:30:15;5.70;99.90
12872;DHT22;6504;53.766;9.626;2023-12-20T14:32:45;5.70;99.90
12872;DHT22;6504;53.766;9.626;2023-12-20T14:35:14;5.60;99.90
12872;DHT22;6504;53.766;9.626;2023-12-20T14:37:43;5.60;99.90
12872;DHT22;6504;53.766;9.626;2023-12-20T14:40:12;5.60;99.90
12872;DHT22;6504;53.766;9.626;2023-12-20T14:42:43;5.60;99.90
12872;DHT22;6504;53.766;9.626;2023-12-20T14:45:12;5.60;99.90
12872;DHT22;6504;53.766;9.626;2023-12-20T14:47:41;5.60;99.90
12872;DHT22;6504;53.766;9.626;2023-12-20T14:50:11;5.60;99.90
12872;DHT22;6504;53.766;9.626;2023-12-20T14:52:45;5.60;99.90
12872;DHT22;6504;53.766;9.626;2023-12-20T14:55:13;5.60;99.90
12872;DHT22;6504;53.766;9.626;2023-12-20T14:57:42;5.60;99.90
12872;DHT22;6504;53.766;9.626;2023-12-20T15:00:11;5.60;99.90
12872;DHT22;6504;53.766;9.626;2023-12-20T15:02:43;5.60;99.90
12872;DHT22;6504;53.766;9.626;2023-12-20T15:05:13;5.60;99.90
12872;DHT22;6504;53.766;9.626;2023-12-20T15:07:42;5.60;99.90
12872;DHT22;6504;53.766;9.626;2023-12-20T15:10:11;5.60;99.90
12872;DHT22;6504;53.766;9.626;2023-12-20T15:12:39;5.50;99.90
12872;DHT22;6504;53.766;9.626;2023-12-20T15:15:08;5.50;99.90
12872;DHT22;6504;53.766;9.626;2023-12-20T15:17:37;5.50;99.90
12872;DHT22;6504;53.766;9.626;2023-12-20T15:20:06;5.50;99.90
12872;DHT22;6504;53.766;9.626;2023-12-20T15:22:37;5.50;99.90
12872;DHT22;6504;53.766;9.626;2023-12-20T15:25:07;5.50;99.90
12872;DHT22;6504;53.766;9.626;2023-12-20T15:27:36;5.50;99.90
12872;DHT22;6504;53.766;9.626;2023-12-20T15:30:06;5.50;99.90
12872;DHT22;6504;53.766;9.626;2023-12-20T15:32:36;5.50;99.90
12872;DHT22;6504;53.766;9.626;2023-12-20T15:35:05;5.40;99.90
12872;DHT22;6504;53.766;9.626;2023-12-20T15:37:34;5.40;99.90
12872;DHT22;6504;53.766;9.626;2023-12-20T15:40:06;5.40;99.90
12872;DHT22;6504;53.766;9.626;2023-12-20T15:42:37;5.40;99.90
12872;DHT22;6504;53.766;9.626;2023-12-20T15:45:06;5.40;99.90
12872;DHT22;6504;53.766;9.626;2023-12-20T15:47:35;5.30;99.90
12872;DHT22;6504;53.766;9.626;2023-12-20T15:50:05;5.30;99.90
12872;DHT22;6504;53.766;9.626;2023-12-20T15:52:35;5.30;99.90
12872;DHT22;6504;53.766;9.626;2023-12-20T15:55:07;5.30;99.90
12872;DHT22;6504;53.766;9.626;2023-12-20T15:57:35;5.30;99.90
12872;DHT22;6504;53.766;9.626;2023-12-20T16:00:18;5.20;99.90
12872;DHT22;6504;53.766;9.626;2023-12-20T16:02:46;5.20;99.90
12872;DHT22;6504;53.766;9.626;2023-12-20T16:05:15;5.20;99.90
12872;DHT22;6504;53.766;9.626;2023-12-20T16:07:43;5.20;99.90
12872;DHT22;6504;53.766;9.626;2023-12-20T16:10:13;5.20;99.90
12872;DHT22;6504;53.766;9.626;2023-12-20T16:12:41;5.20;99.90
12872;DHT22;6504;53.766;9.626;2023-12-20T16:15:09;5.10;99.90